sensor_id;sensor_type;location;lat;lon;timestamp;temperature;humidity
57058;DHT22;55017;52.848;6.748;2022-12-07T00:01:37;3.90;99.90
57058;DHT22;55017;52.848;6.748;2022-12-07T00:04:04;4.00;99.90
57058;DHT22;55017;52.848;6.748;2022-12-07T00:06:37;3.90;99.90
57058;DHT22;55017;52.848;6.748;2022-12-07T00:09:06;3.90;99.90
57058;DHT22;55017;52.848;6.748;2022-12-07T00:11:31;3.70;99.90
57058;DHT22;55017;52.848;6.748;2022-12-07T00:13:59;3.60;99.90
57058;DHT22;55017;52.848;6.748;2022-12-07T00:16:28;3.60;99.90
57058;DHT22;55017;52.848;6.748;2022-12-07T00:18:54;3.50;99.90
57058;DHT22;55017;52.848;6.748;2022-12-07T00:21:22;3.50;99.90
57058;DHT22;55017;52.848;6.748;2022-12-07T00:23:50;3.60;99.90
57058;DHT22;55017;52.848;6.748;2022-12-07T00:28:51;3.50;99.90
57058;DHT22;55017;52.848;6.748;2022-12-07T00:31:19;3.60;99.90
57058;DHT22;55017;52.848;6.748;2022-12-07T00:33:45;3.50;99.90
57058;DHT22;55017;52.848;6.748;2022-12-07T00:36:13;3.60;99.90
57058;DHT22;55017;52.848;6.748;2022-12-07T00:38:40;3.60;99.90
57058;DHT22;55017;52.848;6.748;2022-12-07T00:41:17;3.60;99.90
57058;DHT22;55017;52.848;6.748;2022-12-07T00:43:44;3.60;99.90
57058;DHT22;55017;52.848;6.748;2022-12-07T00:46:10;3.50;99.90
57058;DHT22;55017;52.848;6.748;2022-12-07T00:48:36;3.50;99.90
57058;DHT22;55017;52.848;6.748;2022-12-07T00:51:02;3.50;99.90
57058;DHT22;55017;52.848;6.748;2022-12-07T00:53:28;3.50;99.90
57058;DHT22;55017;52.848;6.748;2022-12-07T00:55:54;3.50;99.90
57058;DHT22;55017;52.848;6.748;2022-12-07T00:58:21;3.40;99.90
57058;DHT22;55017;52.848;6.748;2022-12-07T01:00:47;3.40;99.90
57058;DHT22;55017;52.848;6.748;2022-12-07T01:03:14;3.30;99.90
57058;DHT22;55017;52.848;6.748;2022-12-07T01:05:49;3.20;99.90
57058;DHT22;55017;52.848;6.748;2022-12-07T01:08:15;3.30;99.90
57058;DHT22;55017;52.848;6.748;2022-12-07T01:10:41;3.30;99.90
57058;DHT22;55017;52.848;6.748;2022-12-07T01:13:06;3.30;99.90
57058;DHT22;55017;52.848;6.748;2022-12-07T01:15:32;3.20;99.90
57058;DHT22;55017;52.848;6.748;2022-12-07T01:17:58;3.30;99.90
57058;DHT22;55017;52.848;6.748;2022-12-07T01:20:23;3.10;99.90
57058;DHT22;55017;52.848;6.748;2022-12-07T01:22:49;3.30;99.90
57058;DHT22;55017;52.848;6.748;2022-12-07T01:25:14;3.30;99.90
57058;DHT22;55017;52.848;6.748;2022-12-07T01:27:40;3.30;99.90
57058;DHT22;55017;52.848;6.748;2022-12-07T01:30:06;3.20;99.90
57058;DHT22;55017;52.848;6.748;2022-12-07T01:32:33;3.30;99.90
57058;DHT22;55017;52.848;6.748;2022-12-07T01:34:59;3.20;99.90
57058;DHT22;55017;52.848;6.748;2022-12-07T01:37:24;3.20;99.90
57058;DHT22;55017;52.848;6.748;2022-12-07T01:39:51;3.20;99.90
57058;DHT22;55017;52.848;6.748;2022-12-07T01:42:17;3.20;99.90
57058;DHT22;55017;52.848;6.748;2022-12-07T01:47:53;3.10;99.90
57058;DHT22;55017;52.848;6.748;2022-12-07T01:50:21;3.20;99.90
57058;DHT22;55017;52.848;6.748;2022-12-07T01:52:50;3.00;99.90
57058;DHT22;55017;52.848;6.748;2022-12-07T01:55:18;3.20;99.90
57058;DHT22;55017;52.848;6.748;2022-12-07T01:57:47;3.30;99.90
57058;DHT22;55017;52.848;6.748;2022-12-07T02:00:14;3.30;99.90
57058;DHT22;55017;52.848;6.748;2022-12-07T02:05:10;3.40;99.90
57058;DHT22;55017;52.848;6.748;2022-12-07T02:07:37;3.60;99.90
57058;DHT22;55017;52.848;6.748;2022-12-07T02:10:31;3.60;99.90
57058;DHT22;55017;52.848;6.748;2022-12-07T02:13:02;3.50;99.90
57058;DHT22;55017;52.848;6.748;2022-12-07T02:15:53;3.60;99.90
57058;DHT22;55017;52.848;6.748;2022-12-07T02:18:38;3.70;99.90
57058;DHT22;55017;52.848;6.748;2022-12-07T02:32:11;3.90;99.90
57058;DHT22;55017;52.848;6.748;2022-12-07T02:37:25;3.80;99.90
57058;DHT22;55017;52.848;6.748;2022-12-07T02:39:59;3.60;99.90
57058;DHT22;55017;52.848;6.748;2022-12-07T02:42:40;3.70;99.90
57058;DHT22;55017;52.848;6.748;2022-12-07T02:45:07;3.70;99.90
57058;DHT22;55017;52.848;6.748;2022-12-07T02:47:34;3.50;99.90
57058;DHT22;55017;52.848;6.748;2022-12-07T02:50:04;3.50;99.90
57058;DHT22;55017;52.848;6.748;2022-12-07T02:52:30;3.40;99.90
57058;DHT22;55017;52.848;6.748;2022-12-07T02:54:56;3.40;99.90
57058;DHT22;55017;52.848;6.748;2022-12-07T02:57:34;3.30;99.90
57058;DHT22;55017;52.848;6.748;2022-12-07T03:00:18;3.30;99.90
57058;DHT22;55017;52.848;6.748;2022-12-07T03:03:00;3.40;99.90
57058;DHT22;55017;52.848;6.748;2022-12-07T03:08:25;3.10;99.90
57058;DHT22;55017;52.848;6.748;2022-12-07T03:11:09;3.10;99.90
57058;DHT22;55017;52.848;6.748;2022-12-07T03:13:54;3.10;99.90
57058;DHT22;55017;52.848;6.748;2022-12-07T03:16:37;3.20;99.90
57058;DHT22;55017;52.848;6.748;2022-12-07T03:19:15;3.10;99.90
57058;DHT22;55017;52.848;6.748;2022-12-07T03:21:46;3.10;99.90
57058;DHT22;55017;52.848;6.748;2022-12-07T03:24:15;3.10;99.90
57058;DHT22;55017;52.848;6.748;2022-12-07T03:26:49;3.10;99.90
57058;DHT22;55017;52.848;6.748;2022-12-07T03:29:29;3.20;99.90
57058;DHT22;55017;52.848;6.748;2022-12-07T03:32:05;3.10;99.90
57058;DHT22;55017;52.848;6.748;2022-12-07T03:34:44;3.10;99.90
57058;DHT22;55017;52.848;6.748;2022-12-07T03:37:17;3.20;99.90
57058;DHT22;55017;52.848;6.748;2022-12-07T03:39:52;3.20;99.90
57058;DHT22;55017;52.848;6.748;2022-12-07T03:42:22;3.10;99.90
57058;DHT22;55017;52.848;6.748;2022-12-07T03:44:48;3.10;99.90
57058;DHT22;55017;52.848;6.748;2022-12-07T03:47:37;3.00;99.90
57058;DHT22;55017;52.848;6.748;2022-12-07T03:50:31;3.10;99.90
57058;DHT22;55017;52.848;6.748;2022-12-07T03:53:05;3.00;99.90
57058;DHT22;55017;52.848;6.748;2022-12-07T03:55:36;3.00;99.90
57058;DHT22;55017;52.848;6.748;2022-12-07T03:58:16;2.90;99.90
57058;DHT22;55017;52.848;6.748;2022-12-07T04:00:43;2.90;99.90
57058;DHT22;55017;52.848;6.748;2022-12-07T04:03:10;2.70;99.90
57058;DHT22;55017;52.848;6.748;2022-12-07T04:05:36;2.80;99.90
57058;DHT22;55017;52.848;6.748;2022-12-07T04:08:02;2.60;99.90
57058;DHT22;55017;52.848;6.748;2022-12-07T04:10:28;2.70;99.90
57058;DHT22;55017;52.848;6.748;2022-12-07T04:12:55;2.60;99.90
57058;DHT22;55017;52.848;6.748;2022-12-07T04:15:20;2.50;99.90
57058;DHT22;55017;52.848;6.748;2022-12-07T04:17:46;2.60;99.90
57058;DHT22;55017;52.848;6.748;2022-12-07T04:20:12;2.60;99.90
57058;DHT22;55017;52.848;6.748;2022-12-07T04:22:38;2.60;99.90
57058;DHT22;55017;52.848;6.748;2022-12-07T04:25:04;2.70;99.90
57058;DHT22;55017;52.848;6.748;2022-12-07T04:27:30;2.60;99.90
57058;DHT22;55017;52.848;6.748;2022-12-07T04:29:55;2.60;99.90
57058;DHT22;55017;52.848;6.748;2022-12-07T04:32:21;2.50;99.90
57058;DHT22;55017;52.848;6.748;2022-12-07T04:34:47;2.50;99.90
57058;DHT22;55017;52.848;6.748;2022-12-07T04:37:13;2.40;99.90
57058;DHT22;55017;52.848;6.748;2022-12-07T04:39:38;2.50;99.90
57058;DHT22;55017;52.848;6.748;2022-12-07T04:42:04;2.50;99.90
57058;DHT22;55017;52.848;6.748;2022-12-07T04:44:30;2.50;99.90
57058;DHT22;55017;52.848;6.748;2022-12-07T04:46:56;2.40;99.90
57058;DHT22;55017;52.848;6.748;2022-12-07T04:49:23;2.30;99.90
57058;DHT22;55017;52.848;6.748;2022-12-07T04:51:48;2.30;99.90
57058;DHT22;55017;52.848;6.748;2022-12-07T04:54:15;2.40;99.90
57058;DHT22;55017;52.848;6.748;2022-12-07T04:56:41;2.20;99.90
57058;DHT22;55017;52.848;6.748;2022-12-07T04:59:08;2.20;99.90
57058;DHT22;55017;52.848;6.748;2022-12-07T05:01:34;2.20;99.90
57058;DHT22;55017;52.848;6.748;2022-12-07T05:04:00;2.20;99.90
57058;DHT22;55017;52.848;6.748;2022-12-07T05:06:26;2.10;99.90
57058;DHT22;55017;52.848;6.748;2022-12-07T05:08:52;2.10;99.90
57058;DHT22;55017;52.848;6.748;2022-12-07T05:11:17;2.20;99.90
57058;DHT22;55017;52.848;6.748;2022-12-07T05:14:03;2.30;99.90
57058;DHT22;55017;52.848;6.748;2022-12-07T05:16:29;2.30;99.90
57058;DHT22;55017;52.848;6.748;2022-12-07T05:18:54;2.40;99.90
57058;DHT22;55017;52.848;6.748;2022-12-07T05:21:20;2.40;99.90
57058;DHT22;55017;52.848;6.748;2022-12-07T05:23:46;2.50;99.90
57058;DHT22;55017;52.848;6.748;2022-12-07T05:26:11;2.60;99.90
57058;DHT22;55017;52.848;6.748;2022-12-07T05:28:37;2.60;99.90
57058;DHT22;55017;52.848;6.748;2022-12-07T05:31:03;2.70;99.90
57058;DHT22;55017;52.848;6.748;2022-12-07T05:33:29;2.80;99.90
57058;DHT22;55017;52.848;6.748;2022-12-07T05:35:54;2.90;99.90
57058;DHT22;55017;52.848;6.748;2022-12-07T05:38:20;2.80;99.90
57058;DHT22;55017;52.848;6.748;2022-12-07T05:40:46;2.90;99.90
57058;DHT22;55017;52.848;6.748;2022-12-07T05:43:11;3.00;99.90
57058;DHT22;55017;52.848;6.748;2022-12-07T05:45:37;2.90;99.90
57058;DHT22;55017;52.848;6.748;2022-12-07T05:48:03;3.10;99.90
57058;DHT22;55017;52.848;6.748;2022-12-07T05:50:28;3.00;99.90
57058;DHT22;55017;52.848;6.748;2022-12-07T05:52:54;3.00;99.90
57058;DHT22;55017;52.848;6.748;2022-12-07T05:55:20;3.00;99.90
57058;DHT22;55017;52.848;6.748;2022-12-07T05:57:45;2.90;99.90
57058;DHT22;55017;52.848;6.748;2022-12-07T06:00:32;2.90;99.90
57058;DHT22;55017;52.848;6.748;2022-12-07T06:02:57;2.80;99.90
57058;DHT22;55017;52.848;6.748;2022-12-07T06:05:23;2.90;99.90
57058;DHT22;55017;52.848;6.748;2022-12-07T06:07:49;2.80;99.90
57058;DHT22;55017;52.848;6.748;2022-12-07T06:10:15;2.70;99.90
57058;DHT22;55017;52.848;6.748;2022-12-07T06:12:40;2.70;99.90
57058;DHT22;55017;52.848;6.748;2022-12-07T06:15:09;2.60;99.90
57058;DHT22;55017;52.848;6.748;2022-12-07T06:17:35;2.50;99.90
57058;DHT22;55017;52.848;6.748;2022-12-07T06:20:02;2.50;99.90
57058;DHT22;55017;52.848;6.748;2022-12-07T06:22:28;2.40;99.90
57058;DHT22;55017;52.848;6.748;2022-12-07T06:24:53;2.40;99.90
57058;DHT22;55017;52.848;6.748;2022-12-07T06:27:19;2.30;99.90
57058;DHT22;55017;52.848;6.748;2022-12-07T06:29:45;2.30;99.90
57058;DHT22;55017;52.848;6.748;2022-12-07T06:32:10;2.30;99.90
57058;DHT22;55017;52.848;6.748;2022-12-07T06:34:37;2.20;99.90
57058;DHT22;55017;52.848;6.748;2022-12-07T06:37:02;2.30;99.90
57058;DHT22;55017;52.848;6.748;2022-12-07T06:39:28;2.10;99.90
57058;DHT22;55017;52.848;6.748;2022-12-07T06:41:54;2.20;99.90
57058;DHT22;55017;52.848;6.748;2022-12-07T06:44:21;2.20;99.90
57058;DHT22;55017;52.848;6.748;2022-12-07T06:46:47;2.10;99.90
57058;DHT22;55017;52.848;6.748;2022-12-07T06:49:13;2.10;99.90
57058;DHT22;55017;52.848;6.748;2022-12-07T06:51:39;2.00;99.90
57058;DHT22;55017;52.848;6.748;2022-12-07T06:54:14;2.10;99.90
57058;DHT22;55017;52.848;6.748;2022-12-07T06:56:40;2.00;99.90
57058;DHT22;55017;52.848;6.748;2022-12-07T06:59:07;2.00;99.90
57058;DHT22;55017;52.848;6.748;2022-12-07T07:01:34;2.10;99.90
57058;DHT22;55017;52.848;6.748;2022-12-07T07:04:00;2.00;99.90
57058;DHT22;55017;52.848;6.748;2022-12-07T07:06:25;2.10;99.90
57058;DHT22;55017;52.848;6.748;2022-12-07T07:08:51;2.10;99.90
57058;DHT22;55017;52.848;6.748;2022-12-07T07:11:17;2.00;99.90
57058;DHT22;55017;52.848;6.748;2022-12-07T07:13:42;2.00;99.90
57058;DHT22;55017;52.848;6.748;2022-12-07T07:16:08;2.10;99.90
57058;DHT22;55017;52.848;6.748;2022-12-07T07:18:34;2.20;99.90
57058;DHT22;55017;52.848;6.748;2022-12-07T07:21:00;2.30;99.90
57058;DHT22;55017;52.848;6.748;2022-12-07T07:23:26;2.30;99.90
57058;DHT22;55017;52.848;6.748;2022-12-07T07:25:52;2.30;99.90
57058;DHT22;55017;52.848;6.748;2022-12-07T07:28:18;2.40;99.90
57058;DHT22;55017;52.848;6.748;2022-12-07T07:30:43;2.40;99.90
57058;DHT22;55017;52.848;6.748;2022-12-07T07:33:10;2.50;99.90
57058;DHT22;55017;52.848;6.748;2022-12-07T07:35:36;2.50;99.90
57058;DHT22;55017;52.848;6.748;2022-12-07T07:38:02;2.50;99.90
57058;DHT22;55017;52.848;6.748;2022-12-07T07:40:28;2.50;99.90
57058;DHT22;55017;52.848;6.748;2022-12-07T07:42:55;2.40;99.90
57058;DHT22;55017;52.848;6.748;2022-12-07T07:45:22;2.40;99.90
57058;DHT22;55017;52.848;6.748;2022-12-07T07:47:48;2.40;99.90
57058;DHT22;55017;52.848;6.748;2022-12-07T07:50:14;2.40;99.90
57058;DHT22;55017;52.848;6.748;2022-12-07T07:52:41;2.30;99.90
57058;DHT22;55017;52.848;6.748;2022-12-07T07:55:07;2.50;99.90
57058;DHT22;55017;52.848;6.748;2022-12-07T07:57:37;2.30;99.90
57058;DHT22;55017;52.848;6.748;2022-12-07T08:00:12;2.40;99.90
57058;DHT22;55017;52.848;6.748;2022-12-07T08:02:38;2.30;99.90
57058;DHT22;55017;52.848;6.748;2022-12-07T08:05:04;2.40;99.90
57058;DHT22;55017;52.848;6.748;2022-12-07T08:07:30;2.40;99.90
57058;DHT22;55017;52.848;6.748;2022-12-07T08:09:55;2.40;99.90
57058;DHT22;55017;52.848;6.748;2022-12-07T08:12:21;2.60;99.90
57058;DHT22;55017;52.848;6.748;2022-12-07T08:14:47;2.60;99.90
57058;DHT22;55017;52.848;6.748;2022-12-07T08:17:12;2.60;99.90
57058;DHT22;55017;52.848;6.748;2022-12-07T08:19:38;2.50;99.90
57058;DHT22;55017;52.848;6.748;2022-12-07T08:22:04;2.60;99.90
57058;DHT22;55017;52.848;6.748;2022-12-07T08:24:29;2.70;99.90
57058;DHT22;55017;52.848;6.748;2022-12-07T08:26:55;2.70;99.90
57058;DHT22;55017;52.848;6.748;2022-12-07T08:29:21;2.80;99.90
57058;DHT22;55017;52.848;6.748;2022-12-07T08:31:47;2.80;99.90
57058;DHT22;55017;52.848;6.748;2022-12-07T08:34:12;2.80;99.90
57058;DHT22;55017;52.848;6.748;2022-12-07T08:36:38;2.80;99.90
57058;DHT22;55017;52.848;6.748;2022-12-07T08:39:04;2.80;99.90
57058;DHT22;55017;52.848;6.748;2022-12-07T08:41:29;2.90;99.90
57058;DHT22;55017;52.848;6.748;2022-12-07T08:43:55;2.90;99.90
57058;DHT22;55017;52.848;6.748;2022-12-07T08:46:44;3.00;99.90
57058;DHT22;55017;52.848;6.748;2022-12-07T08:49:16;2.90;99.90
57058;DHT22;55017;52.848;6.748;2022-12-07T08:51:43;3.00;99.90
57058;DHT22;55017;52.848;6.748;2022-12-07T08:54:12;2.80;99.90
57058;DHT22;55017;52.848;6.748;2022-12-07T08:56:40;2.90;99.90
57058;DHT22;55017;52.848;6.748;2022-12-07T08:59:06;3.30;99.90
57058;DHT22;55017;52.848;6.748;2022-12-07T09:01:32;4.00;99.90
57058;DHT22;55017;52.848;6.748;2022-12-07T09:03:58;5.10;99.90
57058;DHT22;55017;52.848;6.748;2022-12-07T09:06:24;5.70;99.90
57058;DHT22;55017;52.848;6.748;2022-12-07T09:08:53;5.90;99.90
57058;DHT22;55017;52.848;6.748;2022-12-07T09:11:19;5.90;99.90
57058;DHT22;55017;52.848;6.748;2022-12-07T09:13:44;5.60;99.90
57058;DHT22;55017;52.848;6.748;2022-12-07T09:16:10;5.50;99.90
57058;DHT22;55017;52.848;6.748;2022-12-07T09:18:36;5.10;99.90
57058;DHT22;55017;52.848;6.748;2022-12-07T09:21:01;4.90;99.90
57058;DHT22;55017;52.848;6.748;2022-12-07T09:23:27;4.70;99.90
57058;DHT22;55017;52.848;6.748;2022-12-07T09:25:52;4.70;99.90
57058;DHT22;55017;52.848;6.748;2022-12-07T09:28:18;4.70;99.90
57058;DHT22;55017;52.848;6.748;2022-12-07T09:30:47;4.90;99.90
57058;DHT22;55017;52.848;6.748;2022-12-07T09:33:13;5.70;99.90
57058;DHT22;55017;52.848;6.748;2022-12-07T09:35:44;5.90;99.90
57058;DHT22;55017;52.848;6.748;2022-12-07T09:38:10;6.40;99.90
57058;DHT22;55017;52.848;6.748;2022-12-07T09:40:36;6.60;99.90
57058;DHT22;55017;52.848;6.748;2022-12-07T09:43:01;6.70;99.90
57058;DHT22;55017;52.848;6.748;2022-12-07T09:45:33;7.30;99.90
57058;DHT22;55017;52.848;6.748;2022-12-07T09:48:00;7.90;99.90
57058;DHT22;55017;52.848;6.748;2022-12-07T09:50:27;8.40;99.90
57058;DHT22;55017;52.848;6.748;2022-12-07T09:52:55;9.60;99.90
57058;DHT22;55017;52.848;6.748;2022-12-07T09:55:28;10.90;99.90
57058;DHT22;55017;52.848;6.748;2022-12-07T09:57:55;10.90;99.90
57058;DHT22;55017;52.848;6.748;2022-12-07T10:00:22;10.10;99.90
57058;DHT22;55017;52.848;6.748;2022-12-07T10:05:24;8.60;99.90
57058;DHT22;55017;52.848;6.748;2022-12-07T10:07:51;8.10;99.90
57058;DHT22;55017;52.848;6.748;2022-12-07T10:10:30;7.60;99.90
57058;DHT22;55017;52.848;6.748;2022-12-07T10:13:02;7.40;99.90
57058;DHT22;55017;52.848;6.748;2022-12-07T10:15:54;7.00;99.90
57058;DHT22;55017;52.848;6.748;2022-12-07T10:18:30;6.70;99.90
57058;DHT22;55017;52.848;6.748;2022-12-07T10:21:12;6.50;99.90
57058;DHT22;55017;52.848;6.748;2022-12-07T10:23:43;6.10;99.90
57058;DHT22;55017;52.848;6.748;2022-12-07T10:26:35;6.10;99.90
57058;DHT22;55017;52.848;6.748;2022-12-07T10:31:45;5.80;99.90
57058;DHT22;55017;52.848;6.748;2022-12-07T10:36:49;5.50;99.90
57058;DHT22;55017;52.848;6.748;2022-12-07T10:39:19;5.40;99.90
57058;DHT22;55017;52.848;6.748;2022-12-07T10:41:56;5.50;99.90
57058;DHT22;55017;52.848;6.748;2022-12-07T10:44:33;5.40;99.90
57058;DHT22;55017;52.848;6.748;2022-12-07T10:55:25;5.50;99.90
57058;DHT22;55017;52.848;6.748;2022-12-07T11:00:55;5.60;99.90
57058;DHT22;55017;52.848;6.748;2022-12-07T11:06:27;6.40;99.90
57058;DHT22;55017;52.848;6.748;2022-12-07T11:09:25;7.00;99.90
57058;DHT22;55017;52.848;6.748;2022-12-07T11:12:10;7.40;99.90
57058;DHT22;55017;52.848;6.748;2022-12-07T11:14:48;7.10;99.90
57058;DHT22;55017;52.848;6.748;2022-12-07T11:22:54;6.80;99.90
57058;DHT22;55017;52.848;6.748;2022-12-07T11:25:34;6.70;99.90
57058;DHT22;55017;52.848;6.748;2022-12-07T11:33:46;6.40;99.90
57058;DHT22;55017;52.848;6.748;2022-12-07T11:36:41;6.40;99.90
57058;DHT22;55017;52.848;6.748;2022-12-07T11:41:42;6.50;99.90
57058;DHT22;55017;52.848;6.748;2022-12-07T11:46:47;6.60;99.90
57058;DHT22;55017;52.848;6.748;2022-12-07T11:52:02;6.50;99.90
57058;DHT22;55017;52.848;6.748;2022-12-07T11:54:34;6.50;99.90
57058;DHT22;55017;52.848;6.748;2022-12-07T11:57:10;7.10;99.90
57058;DHT22;55017;52.848;6.748;2022-12-07T11:59:47;7.90;99.90
57058;DHT22;55017;52.848;6.748;2022-12-07T12:02:23;8.60;99.90
57058;DHT22;55017;52.848;6.748;2022-12-07T12:05:13;9.80;99.90
57058;DHT22;55017;52.848;6.748;2022-12-07T12:07:42;10.70;99.90
57058;DHT22;55017;52.848;6.748;2022-12-07T12:10:57;11.40;99.90
57058;DHT22;55017;52.848;6.748;2022-12-07T12:15:57;12.50;99.90
57058;DHT22;55017;52.848;6.748;2022-12-07T12:21:00;12.60;99.90
57058;DHT22;55017;52.848;6.748;2022-12-07T12:23:37;11.80;99.90
57058;DHT22;55017;52.848;6.748;2022-12-07T12:26:08;11.00;99.90
57058;DHT22;55017;52.848;6.748;2022-12-07T12:31:15;9.90;99.90
57058;DHT22;55017;52.848;6.748;2022-12-07T12:33:53;9.60;99.90
57058;DHT22;55017;52.848;6.748;2022-12-07T12:39:12;9.20;99.90
57058;DHT22;55017;52.848;6.748;2022-12-07T12:46:49;8.70;99.90
57058;DHT22;55017;52.848;6.748;2022-12-07T12:51:47;8.30;99.90
57058;DHT22;55017;52.848;6.748;2022-12-07T12:54:24;8.10;99.90
57058;DHT22;55017;52.848;6.748;2022-12-07T12:57:04;7.80;99.90
57058;DHT22;55017;52.848;6.748;2022-12-07T13:20:57;7.00;99.90
57058;DHT22;55017;52.848;6.748;2022-12-07T13:28:47;7.00;99.90
57058;DHT22;55017;52.848;6.748;2022-12-07T13:33:48;6.80;99.90
57058;DHT22;55017;52.848;6.748;2022-12-07T13:36:26;6.80;99.90
57058;DHT22;55017;52.848;6.748;2022-12-07T13:38:57;6.70;99.90
57058;DHT22;55017;52.848;6.748;2022-12-07T13:41:26;6.60;99.90
57058;DHT22;55017;52.848;6.748;2022-12-07T13:44:01;6.40;99.90
57058;DHT22;55017;52.848;6.748;2022-12-07T13:49:32;6.10;99.90
57058;DHT22;55017;52.848;6.748;2022-12-07T13:52:22;6.10;99.90
57058;DHT22;55017;52.848;6.748;2022-12-07T13:54:59;6.00;99.90
57058;DHT22;55017;52.848;6.748;2022-12-07T13:57:27;5.90;99.90
57058;DHT22;55017;52.848;6.748;2022-12-07T13:59:54;5.90;99.90
57058;DHT22;55017;52.848;6.748;2022-12-07T14:02:29;5.80;99.90
57058;DHT22;55017;52.848;6.748;2022-12-07T14:05:16;5.80;99.90
57058;DHT22;55017;52.848;6.748;2022-12-07T14:10:29;5.80;99.90
57058;DHT22;55017;52.848;6.748;2022-12-07T14:12:56;5.60;99.90
57058;DHT22;55017;52.848;6.748;2022-12-07T14:15:28;5.70;99.90
57058;DHT22;55017;52.848;6.748;2022-12-07T14:17:56;5.70;99.90
57058;DHT22;55017;52.848;6.748;2022-12-07T14:20:32;5.70;99.90
57058;DHT22;55017;52.848;6.748;2022-12-07T14:22:58;5.50;99.90
57058;DHT22;55017;52.848;6.748;2022-12-07T14:25:26;5.60;99.90
57058;DHT22;55017;52.848;6.748;2022-12-07T14:27:54;5.50;99.90
57058;DHT22;55017;52.848;6.748;2022-12-07T14:30:22;5.50;99.90
57058;DHT22;55017;52.848;6.748;2022-12-07T14:33:03;5.30;99.90
57058;DHT22;55017;52.848;6.748;2022-12-07T14:35:30;5.50;99.90
57058;DHT22;55017;52.848;6.748;2022-12-07T14:37:56;5.40;99.90
57058;DHT22;55017;52.848;6.748;2022-12-07T14:40:27;5.40;99.90
57058;DHT22;55017;52.848;6.748;2022-12-07T14:42:57;5.40;99.90
57058;DHT22;55017;52.848;6.748;2022-12-07T14:45:25;5.30;99.90
57058;DHT22;55017;52.848;6.748;2022-12-07T14:47:51;5.20;99.90
57058;DHT22;55017;52.848;6.748;2022-12-07T14:50:19;5.30;99.90
57058;DHT22;55017;52.848;6.748;2022-12-07T14:52:48;5.20;99.90
57058;DHT22;55017;52.848;6.748;2022-12-07T14:55:30;5.10;99.90
57058;DHT22;55017;52.848;6.748;2022-12-07T14:57:56;5.20;99.90
57058;DHT22;55017;52.848;6.748;2022-12-07T15:00:25;5.10;99.90
57058;DHT22;55017;52.848;6.748;2022-12-07T15:02:51;5.10;99.90
57058;DHT22;55017;52.848;6.748;2022-12-07T15:05:18;5.10;99.90
57058;DHT22;55017;52.848;6.748;2022-12-07T15:07:44;5.00;99.90
57058;DHT22;55017;52.848;6.748;2022-12-07T15:12:41;4.90;99.90
57058;DHT22;55017;52.848;6.748;2022-12-07T15:15:07;4.80;99.90
57058;DHT22;55017;52.848;6.748;2022-12-07T15:17:33;4.80;99.90
57058;DHT22;55017;52.848;6.748;2022-12-07T15:19:58;4.90;99.90
57058;DHT22;55017;52.848;6.748;2022-12-07T15:22:24;4.90;99.90
57058;DHT22;55017;52.848;6.748;2022-12-07T15:24:49;4.70;99.90
57058;DHT22;55017;52.848;6.748;2022-12-07T15:27:15;4.70;99.90
57058;DHT22;55017;52.848;6.748;2022-12-07T15:29:41;4.60;99.90
57058;DHT22;55017;52.848;6.748;2022-12-07T15:32:06;4.70;99.90
57058;DHT22;55017;52.848;6.748;2022-12-07T15:34:32;4.70;99.90
57058;DHT22;55017;52.848;6.748;2022-12-07T15:36:57;4.80;99.90
57058;DHT22;55017;52.848;6.748;2022-12-07T15:39:23;4.80;99.90
57058;DHT22;55017;52.848;6.748;2022-12-07T15:41:49;4.80;99.90
57058;DHT22;55017;52.848;6.748;2022-12-07T15:44:15;4.80;99.90
57058;DHT22;55017;52.848;6.748;2022-12-07T15:46:59;4.70;99.90
57058;DHT22;55017;52.848;6.748;2022-12-07T15:49:26;4.90;99.90
57058;DHT22;55017;52.848;6.748;2022-12-07T15:51:51;4.90;99.90
57058;DHT22;55017;52.848;6.748;2022-12-07T15:54:23;4.90;99.90
57058;DHT22;55017;52.848;6.748;2022-12-07T15:56:48;4.80;99.90
57058;DHT22;55017;52.848;6.748;2022-12-07T15:59:14;4.70;99.90
57058;DHT22;55017;52.848;6.748;2022-12-07T16:01:40;4.70;99.90
57058;DHT22;55017;52.848;6.748;2022-12-07T16:04:06;4.60;99.90
57058;DHT22;55017;52.848;6.748;2022-12-07T16:06:32;4.50;99.90
57058;DHT22;55017;52.848;6.748;2022-12-07T16:08:57;4.60;99.90
57058;DHT22;55017;52.848;6.748;2022-12-07T16:11:23;4.50;99.90
57058;DHT22;55017;52.848;6.748;2022-12-07T16:13:49;4.40;99.90
57058;DHT22;55017;52.848;6.748;2022-12-07T16:16:16;4.30;99.90
57058;DHT22;55017;52.848;6.748;2022-12-07T16:18:43;4.30;99.90
57058;DHT22;55017;52.848;6.748;2022-12-07T16:21:09;4.10;99.90
57058;DHT22;55017;52.848;6.748;2022-12-07T16:23:35;4.00;99.90
57058;DHT22;55017;52.848;6.748;2022-12-07T16:26:27;4.20;99.90
57058;DHT22;55017;52.848;6.748;2022-12-07T16:28:53;4.10;99.90
57058;DHT22;55017;52.848;6.748;2022-12-07T16:31:22;4.10;99.90
57058;DHT22;55017;52.848;6.748;2022-12-07T16:33:49;4.00;99.90
57058;DHT22;55017;52.848;6.748;2022-12-07T16:36:15;4.00;99.90
57058;DHT22;55017;52.848;6.748;2022-12-07T16:38:42;4.00;99.90
57058;DHT22;55017;52.848;6.748;2022-12-07T16:41:08;3.90;99.90
57058;DHT22;55017;52.848;6.748;2022-12-07T16:43:34;4.10;99.90
57058;DHT22;55017;52.848;6.748;2022-12-07T16:46:00;4.10;99.90
57058;DHT22;55017;52.848;6.748;2022-12-07T16:48:26;4.10;99.90
57058;DHT22;55017;52.848;6.748;2022-12-07T16:50:52;4.10;99.90
57058;DHT22;55017;52.848;6.748;2022-12-07T16:53:19;4.10;99.90
57058;DHT22;55017;52.848;6.748;2022-12-07T16:55:45;4.20;99.90
57058;DHT22;55017;52.848;6.748;2022-12-07T16:58:12;4.10;99.90
57058;DHT22;55017;52.848;6.748;2022-12-07T17:00:39;4.10;99.90
57058;DHT22;55017;52.848;6.748;2022-12-07T17:03:05;4.10;99.90
57058;DHT22;55017;52.848;6.748;2022-12-07T17:05:31;4.20;99.90
57058;DHT22;55017;52.848;6.748;2022-12-07T17:07:57;4.30;99.90
57058;DHT22;55017;52.848;6.748;2022-12-07T17:10:23;4.20;99.90
57058;DHT22;55017;52.848;6.748;2022-12-07T17:12:49;4.20;99.90
57058;DHT22;55017;52.848;6.748;2022-12-07T17:15:15;4.20;99.90
57058;DHT22;55017;52.848;6.748;2022-12-07T17:17:51;4.30;99.90
57058;DHT22;55017;52.848;6.748;2022-12-07T17:20:17;4.30;99.90
57058;DHT22;55017;52.848;6.748;2022-12-07T17:22:43;4.30;99.90
57058;DHT22;55017;52.848;6.748;2022-12-07T17:25:09;4.20;99.90
57058;DHT22;55017;52.848;6.748;2022-12-07T17:27:35;4.20;99.90
57058;DHT22;55017;52.848;6.748;2022-12-07T17:30:05;4.10;99.90
57058;DHT22;55017;52.848;6.748;2022-12-07T17:32:31;4.10;99.90
57058;DHT22;55017;52.848;6.748;2022-12-07T17:34:57;4.00;99.90
57058;DHT22;55017;52.848;6.748;2022-12-07T17:37:23;4.00;99.90
57058;DHT22;55017;52.848;6.748;2022-12-07T17:39:48;4.00;99.90
57058;DHT22;55017;52.848;6.748;2022-12-07T17:42:15;4.00;99.90
57058;DHT22;55017;52.848;6.748;2022-12-07T17:44:59;4.10;99.90
57058;DHT22;55017;52.848;6.748;2022-12-07T17:47:25;4.00;99.90
57058;DHT22;55017;52.848;6.748;2022-12-07T17:49:50;3.90;99.90
57058;DHT22;55017;52.848;6.748;2022-12-07T17:52:16;3.90;99.90
57058;DHT22;55017;52.848;6.748;2022-12-07T17:55:00;3.80;99.90
57058;DHT22;55017;52.848;6.748;2022-12-07T17:57:26;3.80;99.90
57058;DHT22;55017;52.848;6.748;2022-12-07T17:59:52;3.80;99.90